This is the latest recevied weather packets stored in our database for station/object E20ZNR-1. If no packets are shown the sender has not sent any weather packets the latest 10 day(s).
| Time | Temp. | Humidity | Pressure | Rain* | Wind** | Luminosity | Snow |
|---|---|---|---|---|---|---|---|
| 1777992003 | 29.44° C | 88% | 1006 hPa | - | - | 0 W/m² | - |
| 1777991078 | 28.89° C | 91% | 1006 hPa | - | - | 0 W/m² | - |
| 1777989228 | 29.44° C | 87% | 1005 hPa | - | - | 0 W/m² | - |
| 1777988303 | 30° C | 83% | 1005 hPa | - | - | 0 W/m² | - |
| 1777987378 | 30° C | 85% | 1005 hPa | - | - | 0 W/m² | - |
| 1777986452 | 30.56° C | 80% | 1005 hPa | - | - | 0 W/m² | - |
| 1777985527 | 30.56° C | 79% | 1005 hPa | - | - | 0 W/m² | - |
| 1777984602 | 30.56° C | 77% | 1005 hPa | - | - | 0 W/m² | - |
| 1777983676 | 30.56° C | 75% | 1004 hPa | - | - | 0 W/m² | - |
| 1777982751 | 31.11° C | 74% | 1004 hPa | - | - | 0 W/m² | - |
| 1777981827 | 31.67° C | 70% | 1004 hPa | - | - | 0 W/m² | - |
| 1777980900 | 33.33° C | 65% | 1003 hPa | - | - | 0 W/m² | - |
| 1777979976 | 33.33° C | 62% | 1003 hPa | - | - | 0 W/m² | - |
| 1777979049 | 33.89° C | 61% | 1003 hPa | - | - | 0 W/m² | - |
| 1777978124 | 33.89° C | 59% | 1003 hPa | - | - | 0 W/m² | - |
| 1777977199 | 34.44° C | 57% | 1003 hPa | - | - | 0 W/m² | - |
| 1777976275 | 34.44° C | 55% | 1003 hPa | - | - | 0 W/m² | - |
| 1777975349 | 34.44° C | 52% | 1003 hPa | - | - | 0 W/m² | - |
| 1777974423 | 35° C | 52% | 1003 hPa | - | - | 0 W/m² | - |
| 1777973497 | 35.56° C | 52% | 1002 hPa | - | - | 0 W/m² | - |
| 1777972573 | 35.56° C | 52% | 1002 hPa | - | - | 0 W/m² | - |
| 1777971647 | 35.56° C | 52% | 1003 hPa | - | - | 0 W/m² | - |
| 1777970723 | 36.11° C | 51% | 1003 hPa | - | - | 0 W/m² | - |
| 1777969797 | 36.11° C | 53% | 1003 hPa | - | - | 0 W/m² | - |
| 1777968871 | 36.67° C | 50% | 1003 hPa | - | - | 0 W/m² | - |
* Rain since midnight (hover to see other rain measurements)
** Current wind speed in m/s (hover to see current wind gust speed)